createdAt,value
2018-03-27T00:00:35.490Z,78.67
2018-03-27T00:03:06.427Z,78.63
2018-03-27T00:05:36.549Z,79.14
2018-03-27T00:08:06.321Z,79.80
2018-03-27T00:10:36.412Z,80.23
2018-03-27T00:13:06.418Z,80.26
2018-03-27T00:15:36.447Z,80.61
2018-03-27T00:18:07.147Z,80.47
2018-03-27T00:20:37.208Z,80.60
2018-03-27T00:23:07.423Z,81.18
2018-03-27T00:25:37.390Z,81.75
2018-03-27T00:28:18.649Z,82.01
2018-03-27T00:31:05.402Z,82.33
2018-03-27T00:33:52.109Z,82.78
2018-03-27T00:36:39.137Z,83.03
2018-03-27T00:39:25.768Z,83.18
2018-03-27T00:45:03.672Z,83.42
2018-03-27T00:47:33.068Z,83.74
2018-03-27T00:50:02.518Z,84.04
2018-03-27T00:52:32.541Z,84.32
2018-03-27T00:55:02.498Z,84.45
2018-03-27T00:57:32.365Z,84.36
2018-03-27T01:00:02.367Z,84.35
2018-03-27T01:02:32.017Z,84.56
2018-03-27T01:05:07.401Z,84.52
2018-03-27T01:07:37.342Z,84.62
2018-03-27T01:10:07.298Z,84.83
2018-03-27T01:12:37.357Z,84.30
2018-03-27T01:15:07.334Z,84.48
2018-03-27T01:17:37.282Z,83.73
2018-03-27T01:20:07.246Z,83.07
2018-03-27T01:22:37.325Z,82.08
2018-03-27T01:25:07.439Z,81.72
2018-03-27T01:27:37.420Z,82.08
2018-03-27T01:30:07.361Z,82.57
2018-03-27T01:32:37.599Z,82.93
2018-03-27T01:35:07.624Z,83.27
2018-03-27T01:37:37.665Z,83.59
2018-03-27T01:40:07.585Z,83.60
2018-03-27T01:42:37.552Z,83.50
2018-03-27T01:45:07.246Z,83.07
2018-03-27T01:47:37.165Z,81.34
2018-03-27T01:50:07.116Z,80.48
2018-03-27T01:52:37.176Z,80.33
2018-03-27T01:55:07.150Z,80.14
2018-03-27T01:57:37.097Z,80.93
2018-03-27T02:00:06.697Z,81.48
2018-03-27T02:02:36.697Z,81.05
2018-03-27T02:05:06.635Z,81.19
2018-03-27T02:07:36.613Z,81.84
2018-03-27T02:10:06.629Z,82.00
2018-03-27T02:12:41.900Z,82.14
2018-03-27T02:15:17.114Z,82.37
2018-03-27T02:17:52.327Z,82.25
2018-03-27T02:20:27.584Z,82.14
2018-03-27T02:26:07.176Z,82.31
2018-03-27T02:28:37.789Z,81.83
2018-03-27T02:31:07.826Z,81.51
2018-03-27T02:33:37.809Z,81.27
2018-03-27T02:36:07.746Z,79.91
2018-03-27T02:38:37.801Z,78.99
2018-03-27T02:41:07.836Z,78.83
2018-03-27T02:43:37.857Z,79.53
2018-03-27T02:46:07.653Z,80.00
2018-03-27T02:48:37.570Z,80.05
2018-03-27T02:51:07.324Z,80.40
2018-03-27T02:53:37.327Z,80.94
2018-03-27T02:56:07.263Z,81.39
2018-03-27T02:58:37.044Z,81.65
2018-03-27T03:01:06.264Z,81.61
2018-03-27T03:03:36.395Z,80.98
2018-03-27T03:06:06.418Z,80.60
2018-03-27T03:08:37.119Z,81.09
2018-03-27T03:11:07.043Z,80.64
2018-03-27T03:13:36.983Z,80.99
2018-03-27T03:16:06.953Z,81.32
2018-03-27T03:18:37.003Z,81.74
2018-03-27T03:21:07.003Z,81.93
2018-03-27T03:23:37.050Z,81.04
2018-03-27T03:26:06.952Z,80.71
2018-03-27T03:28:36.929Z,80.55
2018-03-27T03:31:06.873Z,80.88
2018-03-27T03:33:36.891Z,80.97
2018-03-27T03:36:06.934Z,81.21
2018-03-27T03:38:36.922Z,80.88
2018-03-27T03:41:06.887Z,80.76
2018-03-27T03:43:36.896Z,81.39
2018-03-27T03:46:07.241Z,81.54
2018-03-27T03:48:36.883Z,81.79
2018-03-27T03:51:06.878Z,81.28
2018-03-27T03:53:36.864Z,80.96
2018-03-27T03:56:06.826Z,80.94
2018-03-27T03:58:36.875Z,81.47
2018-03-27T04:01:06.997Z,81.69
2018-03-27T04:03:36.943Z,81.52
2018-03-27T04:06:06.929Z,81.73
2018-03-27T04:08:37.133Z,82.33
2018-03-27T04:11:07.959Z,82.64
2018-03-27T04:13:37.823Z,82.99
2018-03-27T04:16:07.813Z,83.40
2018-03-27T04:18:37.979Z,83.24
2018-03-27T04:21:07.976Z,83.94
2018-03-27T04:23:37.921Z,84.18
2018-03-27T04:26:07.581Z,84.54
2018-03-27T04:28:37.879Z,84.44
2018-03-27T04:31:08.652Z,84.63
2018-03-27T04:33:38.728Z,84.94
2018-03-27T04:36:08.670Z,85.15
2018-03-27T04:38:38.875Z,84.57
2018-03-27T04:41:08.736Z,84.57
2018-03-27T04:43:38.613Z,84.54
2018-03-27T04:46:08.484Z,84.31
2018-03-27T04:48:38.404Z,84.72
2018-03-27T04:51:08.251Z,84.54
2018-03-27T04:53:38.269Z,84.32
2018-03-27T04:56:08.136Z,84.31
2018-03-27T04:58:38.092Z,82.73
2018-03-27T05:01:07.923Z,82.95
2018-03-27T05:03:37.773Z,83.41
2018-03-27T05:06:07.680Z,82.41
2018-03-27T05:08:37.527Z,82.70
2018-03-27T05:11:07.419Z,81.63
2018-03-27T05:13:37.291Z,82.11
2018-03-27T05:16:07.139Z,83.23
2018-03-27T05:18:36.989Z,83.67
2018-03-27T05:21:06.878Z,83.74
2018-03-27T05:23:36.739Z,82.97
2018-03-27T05:26:06.576Z,82.78
2018-03-27T05:28:36.504Z,82.15
2018-03-27T05:31:06.443Z,81.72
2018-03-27T05:33:36.062Z,80.98
2018-03-27T05:36:05.965Z,81.40
2018-03-27T05:38:35.850Z,81.56
2018-03-27T05:41:05.905Z,82.35
2018-03-27T05:43:39.658Z,81.53
2018-03-27T05:46:09.384Z,82.09
2018-03-27T05:48:39.283Z,82.30
2018-03-27T05:51:09.174Z,82.73
2018-03-27T05:53:39.220Z,81.91
2018-03-27T05:56:09.073Z,81.94
2018-03-27T05:58:39.058Z,81.95
2018-03-27T06:01:09.046Z,81.98
2018-03-27T06:03:38.914Z,82.05
2018-03-27T06:06:08.801Z,81.75
2018-03-27T06:08:38.771Z,82.06
2018-03-27T06:11:08.625Z,81.23
2018-03-27T06:13:38.492Z,80.54
2018-03-27T06:16:08.489Z,80.15
2018-03-27T06:18:38.519Z,79.81
2018-03-27T06:21:08.605Z,79.46
2018-03-27T06:23:38.634Z,79.23
2018-03-27T06:26:08.540Z,79.87
2018-03-27T06:28:38.622Z,78.58
2018-03-27T06:31:08.449Z,77.91
2018-03-27T06:33:38.349Z,76.83
2018-03-27T06:36:12.457Z,76.90
2018-03-27T06:38:42.453Z,76.89
2018-03-27T06:41:12.349Z,74.79
2018-03-27T06:43:42.193Z,75.47
2018-03-27T06:46:12.134Z,75.16
2018-03-27T06:48:41.972Z,74.31
2018-03-27T06:51:11.825Z,75.11
2018-03-27T06:53:41.688Z,74.73
2018-03-27T06:56:11.552Z,73.56
2018-03-27T06:58:41.393Z,74.35
2018-03-27T07:01:11.296Z,73.84
2018-03-27T07:03:41.291Z,73.25
2018-03-27T07:06:11.323Z,73.04
2018-03-27T07:08:41.151Z,73.38
2018-03-27T07:11:11.026Z,74.37
2018-03-27T07:13:40.944Z,74.65
2018-03-27T07:16:10.731Z,73.86
2018-03-27T07:18:40.908Z,73.86
2018-03-27T07:21:10.981Z,74.16
2018-03-27T07:23:40.844Z,73.00
2018-03-27T07:26:10.573Z,72.87
2018-03-27T07:28:40.421Z,73.47
2018-03-27T07:31:10.756Z,73.87
2018-03-27T07:33:40.689Z,74.21
2018-03-27T07:36:10.606Z,74.11
2018-03-27T07:38:40.585Z,73.74
2018-03-27T07:41:10.428Z,72.73
2018-03-27T07:43:40.308Z,73.07
2018-03-27T07:46:10.225Z,71.59
2018-03-27T07:48:40.109Z,69.87
2018-03-27T07:51:09.965Z,69.93
2018-03-27T07:53:40.072Z,68.06
2018-03-27T07:56:09.977Z,65.82
2018-03-27T07:58:39.974Z,65.93
2018-03-27T08:01:09.825Z,63.59
2018-03-27T08:03:39.661Z,62.54
2018-03-27T08:06:09.527Z,62.14
2018-03-27T08:08:39.465Z,60.12
2018-03-27T08:11:09.196Z,58.50
2018-03-27T08:13:39.193Z,59.30
2018-03-27T08:16:09.051Z,59.08
2018-03-27T08:18:39.117Z,58.46
2018-03-27T08:21:09.032Z,57.49
2018-03-27T08:23:38.886Z,56.40
2018-03-27T08:26:08.764Z,53.67
2018-03-27T08:28:38.678Z,50.67
2018-03-27T08:31:09.677Z,49.41
2018-03-27T08:33:39.528Z,51.13
2018-03-27T08:36:09.360Z,49.41
2018-03-27T08:38:39.237Z,51.02
2018-03-27T08:41:09.098Z,54.07
2018-03-27T08:43:38.985Z,54.99
2018-03-27T08:46:09.255Z,55.02
2018-03-27T08:48:39.188Z,55.61
2018-03-27T08:51:09.168Z,55.83
2018-03-27T08:53:39.083Z,55.57
2018-03-27T08:56:08.982Z,55.61
2018-03-27T08:58:39.094Z,54.66
2018-03-27T09:01:08.965Z,56.20
2018-03-27T09:03:38.930Z,56.77
2018-03-27T09:06:08.769Z,55.78
2018-03-27T09:08:38.685Z,56.94
2018-03-27T09:11:08.770Z,58.30
2018-03-27T09:13:38.640Z,57.84
2018-03-27T09:16:08.213Z,58.57
2018-03-27T09:18:38.104Z,60.15
2018-03-27T09:21:07.959Z,61.16
2018-03-27T09:23:37.848Z,61.08
2018-03-27T09:26:07.686Z,61.12
2018-03-27T09:28:37.586Z,64.33
2018-03-27T09:31:07.406Z,62.74
2018-03-27T09:33:37.887Z,62.19
2018-03-27T09:36:08.127Z,64.31
2018-03-27T09:38:38.001Z,65.16
2018-03-27T09:41:07.851Z,66.50
2018-03-27T09:43:37.688Z,66.44
2018-03-27T09:46:07.538Z,67.24
2018-03-27T09:48:37.145Z,66.41
2018-03-27T09:51:07.059Z,68.94
2018-03-27T09:53:36.892Z,68.89
2018-03-27T09:56:06.749Z,71.20
2018-03-27T09:58:36.337Z,71.17
2018-03-27T10:01:09.510Z,70.43
2018-03-27T10:03:39.370Z,70.30
2018-03-27T10:06:09.214Z,72.38
2018-03-27T10:08:39.120Z,71.81
2018-03-27T10:11:09.017Z,70.59
2018-03-27T10:13:38.868Z,70.00
2018-03-27T10:16:08.170Z,69.33
2018-03-27T10:18:38.899Z,69.45
2018-03-27T10:21:08.744Z,68.42
2018-03-27T10:23:38.746Z,68.98
2018-03-27T10:26:08.582Z,70.19
2018-03-27T10:28:39.394Z,69.82
2018-03-27T10:31:09.324Z,69.40
2018-03-27T10:33:39.196Z,69.14
2018-03-27T10:36:09.066Z,70.90
2018-03-27T10:38:38.900Z,72.64
2018-03-27T10:41:08.730Z,72.96
2018-03-27T10:43:38.600Z,72.45
2018-03-27T10:46:08.441Z,74.06
2018-03-27T10:48:38.294Z,71.79
2018-03-27T10:51:08.148Z,71.66
2018-03-27T10:53:38.514Z,70.89
2018-03-27T10:56:08.391Z,73.03
2018-03-27T10:58:38.225Z,69.24
2018-03-27T11:01:08.140Z,68.97
2018-03-27T11:03:38.003Z,70.56
2018-03-27T11:06:07.838Z,69.17
2018-03-27T11:08:38.703Z,68.50
2018-03-27T11:11:08.551Z,68.67
2018-03-27T11:13:38.397Z,67.02
2018-03-27T11:16:08.280Z,64.95
2018-03-27T11:18:38.133Z,62.70
2018-03-27T11:21:08.066Z,63.02
2018-03-27T11:23:38.485Z,62.45
2018-03-27T11:26:08.357Z,64.80
2018-03-27T11:28:38.208Z,66.99
2018-03-27T11:31:07.729Z,66.96
2018-03-27T11:33:37.583Z,67.80
2018-03-27T11:36:07.413Z,66.05
2018-03-27T11:38:37.319Z,64.85
2018-03-27T11:41:07.137Z,63.91
2018-03-27T11:43:37.021Z,61.18
2018-03-27T11:46:06.930Z,51.22
2018-03-27T11:48:36.836Z,42.04
2018-03-27T11:51:06.414Z,34.52
2018-03-27T11:53:36.001Z,34.10
2018-03-27T11:56:05.570Z,36.62
2018-03-27T11:58:35.130Z,39.20
2018-03-27T12:01:04.676Z,45.46
2018-03-27T12:03:34.259Z,49.73
2018-03-27T12:06:03.826Z,46.14
2018-03-27T12:08:33.393Z,42.29
2018-03-27T12:11:02.774Z,43.59
2018-03-27T12:13:32.336Z,44.39
2018-03-27T12:16:01.945Z,46.93
2018-03-27T12:18:31.535Z,47.75
2018-03-27T12:21:01.097Z,48.73
2018-03-27T12:23:30.945Z,46.58
2018-03-27T12:26:00.480Z,43.17
2018-03-27T12:28:30.065Z,37.99
2018-03-27T12:30:59.672Z,33.56
2018-03-27T12:33:29.202Z,30.65
2018-03-27T12:35:58.767Z,29.14
2018-03-27T12:38:28.350Z,31.22
2018-03-27T12:40:57.904Z,34.54
2018-03-27T12:43:27.472Z,36.98
2018-03-27T12:45:57.044Z,38.34
2018-03-27T12:48:26.603Z,39.52
2018-03-27T12:50:56.187Z,35.32
2018-03-27T12:53:25.763Z,33.98
2018-03-27T12:55:55.349Z,37.04
2018-03-27T12:58:24.914Z,35.67
2018-03-27T13:00:54.464Z,32.96
2018-03-27T13:03:24.028Z,34.76
2018-03-27T13:05:53.660Z,34.35
2018-03-27T13:08:23.229Z,30.49
2018-03-27T13:10:52.805Z,29.61
2018-03-27T13:13:22.366Z,27.83
2018-03-27T13:15:51.740Z,27.67
2018-03-27T13:18:21.330Z,31.50
2018-03-27T13:20:50.943Z,31.80
2018-03-27T13:23:21.525Z,30.99
2018-03-27T13:25:51.137Z,36.20
2018-03-27T13:28:20.755Z,34.99
2018-03-27T13:30:50.451Z,36.53
2018-03-27T13:33:20.016Z,37.51
2018-03-27T13:35:50.190Z,39.44
2018-03-27T13:38:20.134Z,43.77
2018-03-27T13:40:49.785Z,47.92
2018-03-27T13:43:19.715Z,48.66
2018-03-27T13:45:53.822Z,51.94
2018-03-27T13:48:23.680Z,56.43
2018-03-27T13:50:53.746Z,51.61
2018-03-27T13:53:23.822Z,48.72
2018-03-27T13:55:54.263Z,42.00
2018-03-27T13:58:23.873Z,41.59
2018-03-27T14:00:53.437Z,39.99
2018-03-27T14:03:23.029Z,41.78
2018-03-27T14:05:52.585Z,42.35
2018-03-27T14:08:22.170Z,40.60
2018-03-27T14:10:51.777Z,37.84
2018-03-27T14:13:21.328Z,34.52
2018-03-27T14:15:50.896Z,34.35
2018-03-27T14:18:20.462Z,34.56
2018-03-27T14:20:50.012Z,36.92
2018-03-27T14:23:19.718Z,38.05
2018-03-27T14:25:49.285Z,42.07
2018-03-27T14:28:18.841Z,47.54
2018-03-27T14:30:48.408Z,49.71
2018-03-27T14:33:18.116Z,56.17
2018-03-27T14:35:47.676Z,59.22
2018-03-27T14:38:17.568Z,61.50
2018-03-27T14:40:47.571Z,61.29
2018-03-27T14:43:17.425Z,62.84
2018-03-27T14:45:47.276Z,64.10
2018-03-27T14:48:17.098Z,65.38
2018-03-27T14:50:46.979Z,67.34
2018-03-27T14:53:16.818Z,65.92
2018-03-27T14:55:46.743Z,64.56
2018-03-27T14:58:16.608Z,64.42
2018-03-27T15:00:46.465Z,63.43
2018-03-27T15:03:16.333Z,64.69
2018-03-27T15:05:46.404Z,62.33
2018-03-27T15:08:16.266Z,64.21
2018-03-27T15:10:46.109Z,65.81
2018-03-27T15:13:15.999Z,65.81
2018-03-27T15:15:45.846Z,66.76
2018-03-27T15:18:15.769Z,62.76
2018-03-27T15:20:45.607Z,61.65
2018-03-27T15:23:15.488Z,63.20
2018-03-27T15:25:45.341Z,63.57
2018-03-27T15:28:15.932Z,61.88
2018-03-27T15:30:45.854Z,61.60
2018-03-27T15:33:15.721Z,63.04
2018-03-27T15:35:45.542Z,62.50
2018-03-27T15:38:15.383Z,61.38
2018-03-27T15:40:45.211Z,61.12
2018-03-27T15:43:15.047Z,64.10
2018-03-27T15:45:44.915Z,65.54
2018-03-27T15:48:14.806Z,64.87
2018-03-27T15:50:44.650Z,65.76
2018-03-27T15:53:14.523Z,65.81
2018-03-27T15:55:44.388Z,66.32
2018-03-27T15:58:14.972Z,66.27
2018-03-27T16:00:44.871Z,64.87
2018-03-27T16:03:14.726Z,64.14
2018-03-27T16:05:44.586Z,64.14
2018-03-27T16:08:14.443Z,64.27
2018-03-27T16:10:44.279Z,64.53
2018-03-27T16:13:14.173Z,65.34
2018-03-27T16:15:44.167Z,64.94
2018-03-27T16:18:13.676Z,65.85
2018-03-27T16:20:43.611Z,67.11
2018-03-27T16:23:13.481Z,67.17
2018-03-27T16:25:43.437Z,67.67
2018-03-27T16:28:13.273Z,68.32
2018-03-27T16:30:43.228Z,69.72
2018-03-27T16:33:13.623Z,71.25
2018-03-27T16:35:43.637Z,71.96
2018-03-27T16:38:13.515Z,72.57
2018-03-27T16:40:44.071Z,73.82
2018-03-27T16:43:14.157Z,74.96
2018-03-27T16:45:44.056Z,76.28
2018-03-27T16:48:14.114Z,77.70
2018-03-27T16:50:43.968Z,78.83
2018-03-27T16:53:14.151Z,79.52
2018-03-27T16:55:44.368Z,80.56
2018-03-27T16:58:14.198Z,82.93
2018-03-27T17:00:44.047Z,84.03
2018-03-27T17:03:13.922Z,85.15
2018-03-27T17:05:43.781Z,86.25
2018-03-27T17:08:13.649Z,87.06
2018-03-27T17:10:44.553Z,87.63
2018-03-27T17:13:14.447Z,88.29
2018-03-27T17:15:44.328Z,88.86
2018-03-27T17:21:50.933Z,90.54
2018-03-27T17:24:20.911Z,90.65
2018-03-27T17:26:51.460Z,90.65
2018-03-27T17:29:25.486Z,90.72
2018-03-27T17:31:56.410Z,90.55
2018-03-27T17:38:05.431Z,90.36
2018-03-27T17:46:15.636Z,90.78
2018-03-27T17:48:46.395Z,91.14
2018-03-27T17:59:25.305Z,93.10
2018-03-27T18:01:55.506Z,94.11
2018-03-27T18:04:26.705Z,94.40
2018-03-27T18:06:59.008Z,94.91
2018-03-27T18:09:30.383Z,96.09
2018-03-27T18:12:01.314Z,95.38
2018-03-27T18:14:31.746Z,95.32
2018-03-27T18:17:11.726Z,95.62
2018-03-27T18:19:45.077Z,96.01
2018-03-27T18:22:15.284Z,96.00
2018-03-27T18:24:45.252Z,95.96
2018-03-27T18:27:15.427Z,95.11
2018-03-27T18:29:45.606Z,93.95
2018-03-27T18:32:16.139Z,93.86
2018-03-27T18:34:46.605Z,93.70
2018-03-27T18:37:16.701Z,93.91
2018-03-27T18:39:47.167Z,93.78
2018-03-27T18:42:17.383Z,92.71
2018-03-27T18:44:48.282Z,92.29
2018-03-27T18:47:18.459Z,92.30
2018-03-27T18:49:53.088Z,92.66
2018-03-27T18:52:22.749Z,93.15
2018-03-27T18:54:54.684Z,94.01
2018-03-27T18:57:24.783Z,94.69
2018-03-27T19:00:00.160Z,95.26
2018-03-27T19:02:30.387Z,95.80
2018-03-27T19:05:01.205Z,96.19
2018-03-27T19:07:31.458Z,96.66
2018-03-27T19:10:01.835Z,97.07
2018-03-27T19:12:31.808Z,97.37
2018-03-27T19:15:01.909Z,97.78
2018-03-27T19:17:32.646Z,98.09
2018-03-27T19:20:02.956Z,98.40
2018-03-27T19:22:33.171Z,98.79
2018-03-27T19:25:03.464Z,99.21
2018-03-27T19:27:33.272Z,99.56
2018-03-27T19:30:03.561Z,99.84
2018-03-27T19:32:34.474Z,100.00
2018-03-27T19:35:04.228Z,100.00
2018-03-27T19:37:34.068Z,100.00
2018-03-27T19:40:04.395Z,100.00
2018-03-27T19:42:34.927Z,100.00
2018-03-27T19:45:04.587Z,100.00
2018-03-27T19:47:34.517Z,100.00
2018-03-27T19:50:03.918Z,100.00
2018-03-27T19:52:33.998Z,100.00
2018-03-27T19:55:04.112Z,100.00
2018-03-27T19:57:34.080Z,100.00
2018-03-27T20:00:03.758Z,100.00
2018-03-27T20:02:37.873Z,100.00
2018-03-27T20:05:08.179Z,100.00
2018-03-27T20:07:38.229Z,100.00
2018-03-27T20:10:08.253Z,100.00
2018-03-27T20:12:38.702Z,100.00
2018-03-27T20:15:08.830Z,100.00
2018-03-27T20:17:38.927Z,100.00
2018-03-27T20:20:09.015Z,100.00
2018-03-27T20:22:39.150Z,100.00
2018-03-27T20:25:13.290Z,100.00
2018-03-27T20:27:43.173Z,100.00
2018-03-27T20:30:13.069Z,100.00
2018-03-27T20:32:42.998Z,100.00
2018-03-27T20:35:13.066Z,100.00
2018-03-27T20:37:43.031Z,100.00
2018-03-27T20:40:13.057Z,100.00
2018-03-27T20:42:43.330Z,100.00
2018-03-27T20:45:13.500Z,100.00
2018-03-27T20:47:43.396Z,100.00
2018-03-27T20:50:14.336Z,100.00
2018-03-27T20:52:45.192Z,100.00
2018-03-27T20:58:23.087Z,100.00
2018-03-27T21:06:12.667Z,100.00
2018-03-27T21:08:43.235Z,100.00
2018-03-27T21:11:22.609Z,100.00
2018-03-27T21:13:52.614Z,100.00
2018-03-27T21:16:23.695Z,100.00
2018-03-27T21:18:55.600Z,100.00
2018-03-27T21:23:59.955Z,100.00
2018-03-27T21:26:30.012Z,100.00
2018-03-27T21:29:00.128Z,100.00
2018-03-27T21:31:30.220Z,100.00
2018-03-27T21:34:00.375Z,100.00
2018-03-27T21:39:18.952Z,100.00
2018-03-27T21:41:49.360Z,100.00
2018-03-27T21:44:19.354Z,100.00
2018-03-27T21:49:24.026Z,100.00
2018-03-27T21:51:54.213Z,100.00
2018-03-27T21:54:24.263Z,100.00
2018-03-27T21:56:54.355Z,100.00
2018-03-27T21:59:29.079Z,100.00
2018-03-27T22:01:59.708Z,100.00
2018-03-27T22:04:29.823Z,100.00
2018-03-27T22:06:59.748Z,100.00
2018-03-27T22:09:30.079Z,100.00
2018-03-27T22:12:00.638Z,100.00
2018-03-27T22:17:04.134Z,100.00
2018-03-27T22:19:35.152Z,100.00
2018-03-27T22:24:42.780Z,100.00
2018-03-27T22:29:49.211Z,100.00
2018-03-27T22:32:19.457Z,100.00
2018-03-27T22:34:51.338Z,100.00
2018-03-27T22:37:21.888Z,100.00
2018-03-27T22:39:58.485Z,100.00
2018-03-27T22:42:29.127Z,100.00
2018-03-27T22:45:00.927Z,100.00
2018-03-27T22:47:30.909Z,100.00
2018-03-27T22:50:00.982Z,100.00
2018-03-27T22:52:31.454Z,100.00
2018-03-27T22:55:01.576Z,100.00
2018-03-27T22:57:31.719Z,100.00
2018-03-27T23:00:01.764Z,100.00
2018-03-27T23:02:37.066Z,100.00
2018-03-27T23:05:07.110Z,100.00
2018-03-27T23:07:37.787Z,100.00
2018-03-27T23:10:07.731Z,100.00
2018-03-27T23:12:38.561Z,100.00
2018-03-27T23:15:08.737Z,100.00
